createdAt,value
2022-09-29T00:01:46.376Z,10.43
2022-09-29T00:04:13.716Z,11.73
2022-09-29T00:06:40.908Z,8.17
2022-09-29T00:09:08.166Z,8.63
2022-09-29T00:11:35.350Z,6.77
2022-09-29T00:14:02.594Z,6.90
2022-09-29T00:16:29.892Z,9.93
2022-09-29T00:18:57.315Z,7.27
2022-09-29T00:21:24.665Z,7.13
2022-09-29T00:23:51.824Z,7.90
2022-09-29T00:26:22.528Z,6.80
2022-09-29T00:28:52.824Z,6.47
2022-09-29T00:31:21.180Z,13.37
2022-09-29T00:33:48.516Z,8.43
2022-09-29T00:36:19.278Z,7.43
2022-09-29T00:38:48.182Z,8.30
2022-09-29T00:41:19.901Z,8.10
2022-09-29T00:43:55.192Z,13.03
2022-09-29T00:46:40.524Z,7.07
2022-09-29T00:49:23.440Z,7.07
2022-09-29T00:52:04.672Z,14.30
2022-09-29T00:54:38.297Z,7.20
2022-09-29T00:57:08.935Z,10.60
2022-09-29T00:59:52.675Z,6.33
2022-09-29T01:02:22.232Z,6.93
2022-09-29T01:04:52.937Z,11.70
2022-09-29T01:07:25.272Z,14.17
2022-09-29T01:09:56.520Z,8.43
2022-09-29T01:12:23.944Z,13.87
2022-09-29T01:14:53.713Z,8.37
2022-09-29T01:17:21.922Z,18.37
2022-09-29T01:20:04.531Z,10.03
2022-09-29T01:23:02.312Z,12.87
2022-09-29T01:25:59.327Z,9.77
2022-09-29T01:28:32.444Z,7.53
2022-09-29T01:31:22.542Z,7.07
2022-09-29T01:34:17.998Z,7.80
2022-09-29T01:37:27.912Z,18.17
2022-09-29T01:40:05.654Z,7.10
2022-09-29T01:42:39.726Z,7.20
2022-09-29T01:45:18.269Z,7.83
2022-09-29T01:47:52.400Z,6.07
2022-09-29T01:50:28.751Z,6.20
2022-09-29T01:53:08.402Z,12.07
2022-09-29T01:55:41.497Z,7.57
2022-09-29T01:58:43.937Z,6.80
2022-09-29T02:01:14.949Z,7.70
2022-09-29T02:03:47.782Z,7.60
2022-09-29T02:06:21.089Z,9.13
2022-09-29T02:09:02.579Z,6.70
2022-09-29T02:11:32.987Z,10.50
2022-09-29T02:14:08.475Z,8.80
2022-09-29T02:17:01.478Z,11.60
2022-09-29T02:19:34.866Z,7.50
2022-09-29T02:22:02.244Z,6.77
2022-09-29T02:24:29.409Z,6.90
2022-09-29T02:26:56.537Z,6.80
2022-09-29T02:29:24.797Z,8.67
2022-09-29T02:31:57.245Z,7.13
2022-09-29T02:34:24.857Z,9.27
2022-09-29T02:37:13.261Z,6.70
2022-09-29T02:39:52.609Z,6.53
2022-09-29T02:42:19.748Z,7.10
2022-09-29T02:44:58.965Z,6.03
2022-09-29T02:47:43.571Z,5.53
2022-09-29T02:50:36.223Z,6.03
2022-09-29T02:53:22.731Z,13.60
2022-09-29T02:55:57.385Z,7.57
2022-09-29T02:58:37.955Z,11.10
2022-09-29T03:01:06.512Z,11.30
2022-09-29T03:03:33.639Z,15.47
2022-09-29T03:06:00.957Z,28.00
2022-09-29T03:08:33.954Z,47.13
2022-09-29T03:11:01.425Z,18.43
2022-09-29T03:13:28.726Z,19.37
2022-09-29T03:15:56.034Z,7.07
2022-09-29T03:18:24.622Z,13.00
2022-09-29T03:20:54.367Z,7.33
2022-09-29T03:23:21.892Z,7.10
2022-09-29T03:25:49.321Z,13.83
2022-09-29T03:31:13.850Z,9.17
2022-09-29T03:33:41.035Z,13.40
2022-09-29T03:36:14.511Z,8.77
2022-09-29T03:38:57.407Z,7.33
2022-09-29T03:41:43.056Z,9.00
2022-09-29T03:44:12.306Z,7.33
2022-09-29T03:46:39.527Z,5.57
2022-09-29T03:49:06.653Z,7.63
2022-09-29T03:51:33.693Z,5.60
2022-09-29T03:54:00.740Z,6.80
2022-09-29T03:56:34.652Z,8.37
2022-09-29T03:59:01.675Z,19.10
2022-09-29T04:01:28.619Z,20.23
2022-09-29T04:03:55.618Z,13.67
2022-09-29T04:06:22.825Z,9.70
2022-09-29T04:08:50.328Z,12.40
2022-09-29T04:11:29.717Z,10.30
2022-09-29T04:13:56.801Z,11.27
2022-09-29T04:16:23.924Z,10.40
2022-09-29T04:18:50.930Z,7.53
2022-09-29T04:21:18.180Z,11.17
2022-09-29T04:23:46.100Z,7.27
2022-09-29T04:26:13.274Z,9.30
2022-09-29T04:28:40.804Z,10.33
2022-09-29T04:31:08.649Z,10.50
2022-09-29T04:33:36.085Z,15.50
2022-09-29T04:36:03.386Z,10.00
2022-09-29T04:38:31.257Z,10.73
2022-09-29T04:40:59.605Z,7.13
2022-09-29T04:43:26.790Z,12.17
2022-09-29T04:45:54.106Z,72.47
2022-09-29T04:48:21.429Z,16.70
2022-09-29T04:50:52.692Z,17.03
2022-09-29T04:53:19.743Z,17.07
2022-09-29T04:55:46.888Z,49.10
2022-09-29T04:58:15.089Z,13.97
2022-09-29T05:00:42.332Z,39.03
2022-09-29T05:03:09.411Z,34.33
2022-09-29T05:05:36.683Z,6.83
2022-09-29T05:08:44.420Z,47.53
2022-09-29T05:11:11.912Z,105.20
2022-09-29T05:13:39.391Z,303.20
2022-09-29T05:18:06.390Z,13.70
2022-09-29T05:19:58.590Z,29.07
2022-09-29T05:22:35.638Z,13.87
2022-09-29T05:27:50.316Z,7.30
2022-09-29T05:30:25.023Z,43.57
2022-09-29T05:32:58.885Z,15.07
2022-09-29T05:35:26.331Z,15.43
2022-09-29T05:37:53.722Z,42.47
2022-09-29T05:40:24.160Z,10.03
2022-09-29T05:42:52.075Z,87.23
2022-09-29T05:45:22.072Z,300.20
2022-09-29T05:47:49.272Z,152.00
2022-09-29T05:50:16.288Z,175.20
2022-09-29T05:52:48.658Z,138.33
2022-09-29T05:55:16.161Z,68.30
2022-09-29T05:57:48.790Z,130.00
2022-09-29T06:00:15.998Z,10.87
2022-09-29T06:02:42.983Z,16.43
2022-09-29T06:05:10.129Z,112.17
2022-09-29T06:07:37.165Z,109.47
2022-09-29T06:10:04.599Z,114.50
2022-09-29T06:12:36.471Z,77.93
2022-09-29T06:15:05.351Z,585.17
2022-09-29T06:17:38.511Z,161.93
2022-09-29T06:20:07.283Z,160.17
2022-09-29T06:22:34.377Z,233.20
2022-09-29T06:25:04.490Z,191.30
2022-09-29T06:27:31.572Z,309.67
2022-09-29T06:30:00.786Z,392.13
2022-09-29T06:32:27.922Z,515.57
2022-09-29T06:35:13.449Z,234.13
2022-09-29T06:37:46.362Z,275.37
2022-09-29T06:40:14.234Z,347.73
2022-09-29T06:42:44.602Z,276.87
2022-09-29T06:45:11.711Z,294.93
2022-09-29T06:47:39.933Z,122.13
2022-09-29T06:50:23.154Z,146.10
2022-09-29T06:53:01.612Z,72.63
2022-09-29T06:55:33.107Z,160.23
2022-09-29T06:58:03.751Z,96.93
2022-09-29T07:00:33.346Z,208.77
2022-09-29T07:03:00.874Z,153.93
2022-09-29T07:05:28.380Z,173.53
2022-09-29T07:08:00.651Z,416.53
2022-09-29T07:10:28.576Z,272.57
2022-09-29T07:13:03.328Z,134.13
2022-09-29T07:15:33.204Z,105.43
2022-09-29T07:18:05.786Z,32.17
2022-09-29T07:20:33.207Z,24.67
2022-09-29T07:23:02.761Z,66.50
2022-09-29T07:25:51.057Z,34.93
2022-09-29T07:28:17.360Z,28.63
2022-09-29T07:30:46.957Z,14.97
2022-09-29T07:33:14.043Z,22.13
2022-09-29T07:35:41.226Z,12.33
2022-09-29T07:38:11.100Z,9.47
2022-09-29T07:40:38.278Z,9.47
2022-09-29T07:43:05.826Z,16.60
2022-09-29T07:45:33.078Z,10.87
2022-09-29T07:48:00.588Z,10.20
2022-09-29T07:50:33.649Z,9.00
2022-09-29T07:53:00.739Z,10.50
2022-09-29T07:55:27.810Z,11.27
2022-09-29T07:57:57.303Z,11.97
2022-09-29T08:00:25.689Z,9.17
2022-09-29T08:02:52.750Z,10.77
2022-09-29T08:05:19.793Z,8.50
2022-09-29T08:07:51.556Z,11.47
2022-09-29T08:10:21.330Z,12.03
2022-09-29T08:12:48.411Z,10.33
2022-09-29T08:15:15.588Z,8.70
2022-09-29T08:17:44.942Z,11.20
2022-09-29T08:20:11.947Z,8.90
2022-09-29T08:22:39.168Z,9.10
2022-09-29T08:25:06.506Z,9.50
2022-09-29T08:27:35.941Z,7.03
2022-09-29T08:30:09.459Z,5.87
2022-09-29T08:32:37.078Z,5.77
2022-09-29T08:35:11.931Z,5.77
2022-09-29T08:37:39.102Z,5.40
2022-09-29T08:40:12.207Z,5.57
2022-09-29T08:43:05.586Z,5.83
2022-09-29T08:46:08.344Z,5.93
2022-09-29T08:48:54.603Z,5.07
2022-09-29T08:51:42.630Z,5.00
2022-09-29T08:54:35.464Z,5.45
2022-09-29T08:57:06.104Z,4.75
2022-09-29T08:59:33.613Z,5.20
2022-09-29T09:02:25.132Z,5.00
2022-09-29T09:05:07.524Z,5.18
2022-09-29T09:07:47.612Z,5.85
2022-09-29T09:10:32.287Z,5.90
2022-09-29T09:13:08.605Z,5.28
2022-09-29T09:15:53.057Z,5.30
2022-09-29T09:18:39.391Z,5.93
2022-09-29T09:21:17.066Z,5.82
2022-09-29T09:24:00.633Z,5.70
2022-09-29T09:26:43.755Z,5.30
2022-09-29T09:29:38.182Z,5.30
2022-09-29T09:32:15.740Z,5.35
2022-09-29T09:35:21.910Z,5.03
2022-09-29T09:37:51.666Z,5.68
2022-09-29T09:40:37.469Z,4.80
2022-09-29T09:43:42.884Z,5.80
2022-09-29T09:46:34.350Z,4.82
2022-09-29T09:49:11.882Z,7.03
2022-09-29T09:51:51.268Z,6.32
2022-09-29T09:54:31.421Z,7.45
2022-09-29T09:57:22.852Z,6.72
2022-09-29T10:00:09.072Z,6.72
2022-09-29T10:02:46.173Z,6.93
2022-09-29T10:05:17.385Z,6.72
2022-09-29T10:07:48.750Z,5.93
2022-09-29T10:10:22.272Z,6.50
2022-09-29T10:13:14.358Z,7.05
2022-09-29T10:15:56.485Z,6.50
2022-09-29T10:18:32.994Z,7.40
2022-09-29T10:21:00.052Z,6.72
2022-09-29T10:23:35.731Z,6.88
2022-09-29T10:26:20.936Z,6.10
2022-09-29T10:28:57.095Z,6.95
2022-09-29T10:31:26.991Z,6.18
2022-09-29T10:34:20.141Z,5.80
2022-09-29T10:37:02.247Z,5.43
2022-09-29T10:39:48.329Z,6.10
2022-09-29T10:42:36.711Z,6.05
2022-09-29T10:45:14.071Z,5.88
2022-09-29T10:48:05.710Z,6.03
2022-09-29T10:50:37.675Z,5.03
2022-09-29T10:53:17.127Z,4.80
2022-09-29T10:55:54.143Z,4.25
2022-09-29T10:58:45.254Z,4.07
2022-09-29T11:01:18.609Z,5.22
2022-09-29T11:04:01.346Z,4.63
2022-09-29T11:06:33.826Z,5.05
2022-09-29T11:09:21.339Z,4.80
2022-09-29T11:12:00.434Z,6.07
2022-09-29T11:14:41.800Z,5.43
2022-09-29T11:17:41.654Z,5.50
2022-09-29T11:20:18.330Z,5.15
2022-09-29T11:23:00.287Z,5.23
2022-09-29T11:25:27.207Z,6.60
2022-09-29T11:28:15.886Z,4.53
2022-09-29T11:31:35.061Z,4.03
2022-09-29T11:34:28.992Z,3.90
2022-09-29T11:37:24.189Z,3.27
2022-09-29T11:40:17.674Z,2.87
2022-09-29T11:43:45.727Z,4.43
2022-09-29T11:46:38.957Z,4.53
2022-09-29T11:49:28.336Z,4.88
2022-09-29T11:52:33.028Z,3.70
2022-09-29T11:55:19.082Z,3.83
2022-09-29T11:57:52.007Z,3.60
2022-09-29T12:00:21.645Z,3.60
2022-09-29T12:03:17.017Z,4.75
2022-09-29T12:06:15.737Z,2.83
2022-09-29T12:09:01.382Z,3.08
2022-09-29T12:12:05.174Z,2.83
2022-09-29T12:15:00.577Z,2.83
2022-09-29T12:17:32.677Z,2.47
2022-09-29T12:20:42.469Z,1.90
2022-09-29T12:23:18.821Z,1.42
2022-09-29T12:26:13.194Z,1.30
2022-09-29T12:28:56.043Z,2.90
2022-09-29T12:31:25.737Z,3.30
2022-09-29T12:34:11.149Z,3.15
2022-09-29T12:36:54.104Z,3.15
2022-09-29T12:39:29.298Z,2.30
2022-09-29T12:42:29.373Z,3.35
2022-09-29T12:45:35.161Z,2.95
2022-09-29T12:48:14.563Z,2.00
2022-09-29T12:51:13.949Z,3.25
2022-09-29T12:54:08.052Z,1.48
2022-09-29T12:56:40.911Z,1.02
2022-09-29T12:59:19.982Z,1.73
2022-09-29T13:01:50.650Z,1.10
2022-09-29T13:04:50.526Z,2.15
2022-09-29T13:07:39.782Z,1.20
2022-09-29T13:10:25.903Z,2.58
2022-09-29T13:13:35.571Z,1.10
2022-09-29T13:16:11.731Z,0.90
2022-09-29T13:19:20.377Z,1.00
2022-09-29T13:22:27.260Z,0.90
2022-09-29T13:25:49.612Z,0.90
2022-09-29T13:28:36.455Z,1.70
2022-09-29T13:31:11.694Z,1.00
2022-09-29T13:33:39.377Z,1.00
2022-09-29T13:36:10.958Z,1.38
2022-09-29T13:38:39.458Z,1.00
2022-09-29T13:41:23.599Z,1.13
2022-09-29T13:44:04.905Z,3.55
2022-09-29T13:46:40.167Z,3.40
2022-09-29T13:49:17.437Z,1.42
2022-09-29T13:52:18.385Z,3.63
2022-09-29T13:54:46.670Z,1.80
2022-09-29T13:57:14.330Z,1.25
2022-09-29T13:59:54.399Z,3.63
2022-09-29T14:02:33.481Z,1.10
2022-09-29T14:05:01.784Z,1.88
2022-09-29T14:07:49.545Z,2.20
2022-09-29T14:10:37.307Z,1.53
2022-09-29T14:13:26.290Z,1.10
2022-09-29T14:16:06.817Z,0.97
2022-09-29T14:18:39.303Z,1.37
2022-09-29T14:21:10.952Z,1.27
2022-09-29T14:23:52.719Z,1.50
2022-09-29T14:26:41.810Z,1.30
2022-09-29T14:29:24.749Z,1.67
2022-09-29T14:31:55.987Z,1.23
2022-09-29T14:34:26.994Z,1.10
2022-09-29T14:36:55.972Z,1.03
2022-09-29T14:39:27.115Z,1.50
2022-09-29T14:41:57.116Z,2.13
2022-09-29T14:44:52.086Z,2.87
2022-09-29T14:48:05.644Z,1.60
2022-09-29T14:51:12.484Z,1.63
2022-09-29T14:53:53.322Z,1.00
2022-09-29T14:56:45.186Z,1.97
2022-09-29T14:59:24.278Z,1.50
2022-09-29T15:02:19.089Z,2.57
2022-09-29T15:04:47.392Z,1.43
2022-09-29T15:07:25.946Z,1.30
2022-09-29T15:09:58.682Z,1.10
2022-09-29T15:12:32.090Z,1.10
2022-09-29T15:15:00.280Z,1.30
2022-09-29T15:17:43.495Z,1.30
2022-09-29T15:20:18.567Z,1.10
2022-09-29T15:23:08.384Z,1.40
2022-09-29T15:25:39.635Z,3.90
2022-09-29T15:28:15.537Z,1.50
2022-09-29T15:30:43.519Z,3.00
2022-09-29T15:33:20.585Z,1.27
2022-09-29T15:35:56.162Z,1.43
2022-09-29T15:38:23.338Z,1.70
2022-09-29T15:40:59.166Z,2.40
2022-09-29T15:43:28.804Z,1.83
2022-09-29T15:45:59.538Z,2.77
2022-09-29T15:48:28.354Z,1.80
2022-09-29T15:50:55.918Z,1.83
2022-09-29T15:53:25.294Z,2.60
2022-09-29T15:55:53.335Z,7.90
2022-09-29T15:58:26.509Z,11.70
2022-09-29T16:01:02.705Z,3.20
2022-09-29T16:03:46.685Z,5.13
2022-09-29T16:06:37.296Z,3.20
2022-09-29T16:09:14.253Z,5.03
2022-09-29T16:11:41.445Z,2.73
2022-09-29T16:14:17.453Z,10.17
2022-09-29T16:16:48.510Z,5.27
2022-09-29T16:19:22.824Z,3.97
2022-09-29T16:21:55.949Z,2.80
2022-09-29T16:24:30.767Z,2.50
2022-09-29T16:26:59.340Z,1.73
2022-09-29T16:29:34.857Z,1.63
2022-09-29T16:32:32.996Z,1.80
2022-09-29T16:35:40.756Z,1.97
2022-09-29T16:38:16.509Z,2.47
2022-09-29T16:40:44.472Z,3.83
2022-09-29T16:43:38.316Z,2.47
2022-09-29T16:46:07.331Z,2.40
2022-09-29T16:48:42.348Z,2.13
2022-09-29T16:51:38.511Z,2.13
2022-09-29T16:54:03.759Z,4.50
2022-09-29T16:56:35.126Z,4.00
2022-09-29T16:59:18.882Z,4.63
2022-09-29T17:01:48.848Z,5.33
2022-09-29T17:04:15.944Z,5.53
2022-09-29T17:06:48.194Z,4.43
2022-09-29T17:09:20.190Z,2.83
2022-09-29T17:11:49.425Z,3.33
2022-09-29T17:14:18.634Z,4.57
2022-09-29T17:16:46.448Z,13.43
2022-09-29T17:19:13.545Z,9.10
2022-09-29T17:21:40.648Z,6.73
2022-09-29T17:24:13.732Z,6.43
2022-09-29T17:27:04.563Z,4.27
2022-09-29T17:29:32.076Z,4.40
2022-09-29T17:31:59.139Z,4.47
2022-09-29T17:34:28.946Z,3.90
2022-09-29T17:37:01.828Z,3.87
2022-09-29T17:39:29.201Z,1.70
2022-09-29T17:41:57.890Z,3.17
2022-09-29T17:44:25.150Z,3.50
2022-09-29T17:46:57.463Z,14.77
2022-09-29T17:49:40.339Z,7.93
2022-09-29T17:52:10.205Z,5.13
2022-09-29T17:54:38.542Z,5.20
2022-09-29T17:57:05.685Z,3.63
2022-09-29T17:59:34.835Z,3.87
2022-09-29T18:02:02.341Z,4.37
2022-09-29T18:04:29.400Z,4.13
2022-09-29T18:06:56.387Z,4.30
2022-09-29T18:09:23.420Z,4.50
2022-09-29T18:11:52.886Z,4.10
2022-09-29T18:14:19.984Z,7.03
2022-09-29T18:16:47.229Z,5.77
2022-09-29T18:19:19.903Z,5.20
2022-09-29T18:21:47.170Z,6.67
2022-09-29T18:24:15.568Z,6.37
2022-09-29T18:26:45.662Z,4.87
2022-09-29T18:29:19.219Z,3.97
2022-09-29T18:31:46.325Z,5.07
2022-09-29T18:34:18.696Z,3.70
2022-09-29T18:36:46.325Z,3.50
2022-09-29T18:39:15.863Z,2.90
2022-09-29T18:41:42.918Z,2.93
2022-09-29T18:44:21.017Z,3.00
2022-09-29T18:46:48.123Z,3.30
2022-09-29T18:49:15.147Z,2.50
2022-09-29T18:51:42.154Z,4.07
2022-09-29T18:54:09.394Z,3.30
2022-09-29T18:56:36.523Z,4.27
2022-09-29T18:59:07.443Z,7.07
2022-09-29T19:01:34.493Z,4.60
2022-09-29T19:04:01.821Z,8.50
2022-09-29T19:06:28.895Z,7.53
2022-09-29T19:08:56.220Z,6.83
2022-09-29T19:11:25.957Z,7.70
2022-09-29T19:13:55.314Z,5.30
2022-09-29T19:16:23.743Z,4.87
2022-09-29T19:18:51.039Z,5.77
2022-09-29T19:21:18.184Z,6.57
2022-09-29T19:23:48.773Z,8.33
2022-09-29T19:26:18.871Z,6.30
2022-09-29T19:28:47.548Z,5.57
2022-09-29T19:31:19.315Z,5.80
2022-09-29T19:33:51.367Z,6.53
2022-09-29T19:36:21.525Z,6.27
2022-09-29T19:38:50.378Z,6.70
2022-09-29T19:41:23.545Z,4.97
2022-09-29T19:43:51.689Z,4.43
2022-09-29T19:46:20.496Z,3.80
2022-09-29T19:48:47.864Z,3.73
2022-09-29T19:51:34.912Z,3.47
2022-09-29T19:54:19.106Z,3.53
2022-09-29T19:56:50.780Z,3.70
2022-09-29T19:59:21.703Z,4.93
2022-09-29T20:01:50.773Z,5.70
2022-09-29T20:04:20.221Z,4.23
2022-09-29T20:06:47.566Z,4.00
2022-09-29T20:09:14.784Z,4.50
2022-09-29T20:11:42.327Z,6.50
2022-09-29T20:14:12.118Z,4.73
2022-09-29T20:16:43.944Z,4.37
2022-09-29T20:19:16.843Z,5.77
2022-09-29T20:21:45.387Z,4.73
2022-09-29T20:24:14.845Z,6.07
2022-09-29T20:26:44.222Z,6.37
2022-09-29T20:29:12.568Z,4.63
2022-09-29T20:31:39.753Z,4.90
2022-09-29T20:34:08.155Z,5.93
2022-09-29T20:36:35.463Z,6.87
2022-09-29T20:39:02.810Z,7.97
2022-09-29T20:41:30.056Z,8.27
2022-09-29T20:43:57.884Z,7.63
2022-09-29T20:46:27.499Z,9.27
2022-09-29T20:48:57.332Z,7.20
2022-09-29T20:51:25.872Z,8.53
2022-09-29T20:53:59.496Z,9.40
2022-09-29T20:56:35.991Z,7.43
2022-09-29T20:59:03.118Z,7.40
2022-09-29T21:01:31.454Z,5.23
2022-09-29T21:04:01.691Z,6.33
2022-09-29T21:06:31.454Z,7.47
2022-09-29T21:08:59.363Z,6.77
2022-09-29T21:11:27.330Z,7.63
2022-09-29T21:13:57.826Z,6.57
2022-09-29T21:16:25.674Z,9.43
2022-09-29T21:18:53.651Z,5.00
2022-09-29T21:21:20.717Z,7.40
2022-09-29T21:23:50.515Z,7.13
2022-09-29T21:26:20.562Z,8.23
2022-09-29T21:28:52.964Z,7.53
2022-09-29T21:31:23.189Z,7.50
2022-09-29T21:33:54.504Z,6.10
2022-09-29T21:36:24.280Z,5.33
2022-09-29T21:38:51.768Z,4.27
2022-09-29T21:41:21.461Z,3.87
2022-09-29T21:43:53.871Z,3.60
2022-09-29T21:46:23.336Z,3.20
2022-09-29T21:48:53.217Z,3.57
2022-09-29T21:51:32.519Z,4.27
2022-09-29T21:54:01.286Z,5.40
2022-09-29T21:56:34.625Z,4.57
2022-09-29T21:59:01.910Z,6.27
2022-09-29T22:01:28.929Z,5.97
2022-09-29T22:03:56.561Z,5.97
2022-09-29T22:06:26.862Z,5.40
2022-09-29T22:08:56.112Z,5.23
2022-09-29T22:11:32.296Z,5.30
2022-09-29T22:14:00.957Z,5.27
2022-09-29T22:16:30.738Z,3.90
2022-09-29T22:19:21.918Z,4.03
2022-09-29T22:21:46.865Z,2.80
2022-09-29T22:24:14.024Z,2.33
2022-09-29T22:26:41.453Z,3.10
2022-09-29T22:29:09.107Z,3.50
2022-09-29T22:31:36.292Z,3.63
2022-09-29T22:34:05.161Z,4.73
2022-09-29T22:36:34.535Z,3.20
2022-09-29T22:39:03.304Z,2.60
2022-09-29T22:41:30.674Z,2.40
2022-09-29T22:43:59.996Z,3.00
2022-09-29T22:46:29.535Z,4.20
2022-09-29T22:48:57.331Z,2.50
2022-09-29T22:51:24.399Z,3.23
2022-09-29T22:53:51.898Z,5.37
2022-09-29T22:56:21.882Z,2.50
2022-09-29T22:58:49.485Z,2.03
2022-09-29T23:01:18.263Z,1.90
2022-09-29T23:03:45.912Z,2.33
2022-09-29T23:06:14.103Z,2.47
2022-09-29T23:08:51.427Z,4.03
2022-09-29T23:11:20.008Z,1.90
2022-09-29T23:13:47.575Z,2.40
2022-09-29T23:16:18.554Z,2.50
2022-09-29T23:18:52.960Z,2.17
2022-09-29T23:21:20.123Z,1.87
2022-09-29T23:23:51.795Z,1.90
2022-09-29T23:26:18.860Z,1.87
2022-09-29T23:28:45.901Z,2.10
2022-09-29T23:31:13.001Z,2.97
2022-09-29T23:33:40.007Z,3.00
2022-09-29T23:36:15.426Z,2.30
2022-09-29T23:39:03.077Z,3.77
2022-09-29T23:41:30.637Z,2.70
2022-09-29T23:44:00.171Z,2.50
2022-09-29T23:46:31.822Z,2.00
2022-09-29T23:49:00.507Z,2.73
2022-09-29T23:51:32.079Z,2.17
2022-09-29T23:54:00.375Z,2.17
2022-09-29T23:56:28.003Z,2.30
2022-09-29T23:58:55.540Z,1.90
